createdAt,value
2022-12-18T00:01:24.436Z,31.07
2022-12-18T00:03:52.868Z,32.23
2022-12-18T00:06:21.326Z,31.33
2022-12-18T00:08:48.950Z,30.17
2022-12-18T00:11:19.836Z,33.63
2022-12-18T00:13:47.705Z,27.47
2022-12-18T00:16:17.701Z,30.50
2022-12-18T00:18:44.975Z,32.47
2022-12-18T00:21:13.717Z,29.33
2022-12-18T00:23:43.760Z,33.03
2022-12-18T00:26:25.703Z,30.57
2022-12-18T00:29:03.942Z,33.40
2022-12-18T00:31:33.836Z,34.00
2022-12-18T00:34:02.272Z,33.23
2022-12-18T00:36:33.107Z,35.37
2022-12-18T00:39:01.592Z,31.87
2022-12-18T00:41:47.893Z,32.93
2022-12-18T00:44:16.969Z,33.10
2022-12-18T00:46:46.299Z,34.27
2022-12-18T00:49:13.441Z,31.63
2022-12-18T00:51:40.667Z,33.93
2022-12-18T00:54:07.882Z,32.00
2022-12-18T00:56:45.357Z,33.07
2022-12-18T00:59:15.675Z,35.67
2022-12-18T01:01:43.009Z,36.10
2022-12-18T01:04:10.216Z,36.20
2022-12-18T01:06:38.111Z,33.87
2022-12-18T01:09:05.368Z,37.80
2022-12-18T01:11:32.477Z,34.80
2022-12-18T01:14:00.909Z,35.23
2022-12-18T01:16:28.035Z,35.60
2022-12-18T01:18:55.675Z,37.23
2022-12-18T01:21:24.472Z,34.53
2022-12-18T01:23:55.997Z,36.20
2022-12-18T01:26:25.128Z,35.20
2022-12-18T01:28:52.544Z,37.90
2022-12-18T01:31:32.349Z,36.83
2022-12-18T01:34:02.775Z,36.40
2022-12-18T01:36:35.486Z,36.57
2022-12-18T01:39:05.527Z,35.17
2022-12-18T01:41:53.777Z,36.03
2022-12-18T01:44:58.964Z,37.27
2022-12-18T01:48:06.803Z,36.07
2022-12-18T01:50:38.004Z,35.50
2022-12-18T01:53:14.984Z,37.27
2022-12-18T01:56:02.135Z,37.57
2022-12-18T01:58:42.531Z,34.80
2022-12-18T02:01:10.339Z,38.13
2022-12-18T02:03:46.760Z,37.00
2022-12-18T02:06:41.033Z,35.53
2022-12-18T02:09:39.806Z,38.73
2022-12-18T02:12:35.995Z,38.77
2022-12-18T02:15:35.281Z,38.33
2022-12-18T02:18:34.845Z,37.80
2022-12-18T02:21:28.210Z,35.53
2022-12-18T02:24:41.046Z,37.47
2022-12-18T02:27:10.213Z,40.03
2022-12-18T02:29:45.107Z,39.83
2022-12-18T02:32:17.124Z,40.10
2022-12-18T02:34:45.744Z,40.03
2022-12-18T02:37:19.314Z,41.37
2022-12-18T02:39:50.828Z,41.50
2022-12-18T02:42:19.789Z,42.47
2022-12-18T02:44:51.691Z,40.10
2022-12-18T02:47:30.390Z,42.40
2022-12-18T02:50:30.575Z,38.73
2022-12-18T02:53:25.468Z,40.50
2022-12-18T02:56:26.731Z,37.63
2022-12-18T02:59:03.121Z,39.73
2022-12-18T03:02:29.295Z,40.57
2022-12-18T03:05:25.835Z,39.53
2022-12-18T03:08:02.952Z,41.00
2022-12-18T03:10:40.263Z,41.17
2022-12-18T03:13:18.079Z,42.70
2022-12-18T03:15:49.079Z,43.27
2022-12-18T03:18:24.667Z,42.80
2022-12-18T03:20:56.820Z,39.90
2022-12-18T03:23:28.942Z,42.33
2022-12-18T03:26:04.385Z,41.10
2022-12-18T03:28:40.874Z,38.70
2022-12-18T03:31:12.799Z,42.70
2022-12-18T03:33:48.306Z,46.07
2022-12-18T03:36:16.173Z,44.53
2022-12-18T03:38:43.567Z,44.50
2022-12-18T03:41:39.306Z,47.27
2022-12-18T03:44:36.377Z,44.70
2022-12-18T03:47:20.125Z,44.37
2022-12-18T03:49:57.477Z,44.67
2022-12-18T03:52:31.381Z,42.87
2022-12-18T03:55:00.893Z,43.70
2022-12-18T03:57:30.940Z,46.90
2022-12-18T04:00:03.400Z,42.90
2022-12-18T04:02:46.082Z,47.23
2022-12-18T04:05:19.499Z,43.97
2022-12-18T04:07:48.987Z,45.47
2022-12-18T04:10:17.803Z,40.10
2022-12-18T04:12:45.673Z,42.67
2022-12-18T04:15:14.609Z,46.23
2022-12-18T04:17:49.722Z,43.50
2022-12-18T04:20:19.660Z,44.97
2022-12-18T04:22:47.422Z,46.47
2022-12-18T04:25:15.074Z,45.40
2022-12-18T04:27:54.113Z,45.37
2022-12-18T04:30:21.274Z,45.07
2022-12-18T04:32:52.230Z,46.23
2022-12-18T04:35:20.644Z,45.23
2022-12-18T04:37:47.698Z,46.47
2022-12-18T04:40:16.022Z,47.63
2022-12-18T04:42:46.564Z,45.77
2022-12-18T04:45:13.688Z,47.17
2022-12-18T04:47:40.779Z,48.27
2022-12-18T04:50:08.462Z,45.60
2022-12-18T04:52:35.509Z,45.40
2022-12-18T04:55:02.582Z,48.83
2022-12-18T04:57:29.663Z,48.80
2022-12-18T04:59:56.758Z,49.90
2022-12-18T05:02:23.856Z,46.60
2022-12-18T05:04:51.021Z,48.07
2022-12-18T05:07:18.049Z,48.17
2022-12-18T05:09:45.175Z,46.30
2022-12-18T05:12:12.300Z,46.90
2022-12-18T05:14:39.356Z,47.50
2022-12-18T05:17:06.459Z,46.67
2022-12-18T05:19:33.657Z,47.40
2022-12-18T05:22:00.746Z,48.87
2022-12-18T05:24:27.967Z,42.40
2022-12-18T05:26:55.018Z,42.93
2022-12-18T05:29:22.164Z,39.07
2022-12-18T05:31:49.242Z,42.67
2022-12-18T05:34:16.568Z,41.63
2022-12-18T05:36:43.749Z,39.63
2022-12-18T05:39:11.749Z,40.67
2022-12-18T05:41:38.827Z,40.67
2022-12-18T05:44:06.253Z,36.43
2022-12-18T05:46:33.774Z,35.23
2022-12-18T05:49:02.242Z,38.47
2022-12-18T05:51:29.434Z,40.70
2022-12-18T05:53:56.526Z,41.13
2022-12-18T05:56:23.887Z,39.20
2022-12-18T05:58:55.049Z,40.20
2022-12-18T06:01:27.410Z,42.57
2022-12-18T06:03:56.058Z,42.60
2022-12-18T06:06:25.665Z,43.53
2022-12-18T06:08:53.494Z,42.73
2022-12-18T06:11:24.141Z,38.97
2022-12-18T06:13:57.838Z,39.77
2022-12-18T06:16:25.678Z,42.53
2022-12-18T06:18:52.733Z,41.60
2022-12-18T06:21:19.845Z,41.90
2022-12-18T06:23:46.912Z,39.00
2022-12-18T06:26:14.878Z,41.33
2022-12-18T06:28:42.458Z,39.40
2022-12-18T06:31:10.121Z,39.57
2022-12-18T06:33:38.538Z,38.10
2022-12-18T06:36:14.029Z,38.37
2022-12-18T06:38:43.279Z,36.17
2022-12-18T06:41:20.563Z,38.90
2022-12-18T06:43:48.013Z,40.10
2022-12-18T06:46:15.488Z,48.13
2022-12-18T06:48:42.675Z,40.73
2022-12-18T06:51:09.758Z,43.50
2022-12-18T06:53:37.063Z,35.87
2022-12-18T06:56:10.325Z,36.47
2022-12-18T06:58:38.541Z,41.10
2022-12-18T07:01:07.945Z,35.30
2022-12-18T07:03:35.419Z,36.50
2022-12-18T07:06:02.680Z,35.33
2022-12-18T07:08:31.231Z,42.87
2022-12-18T07:10:58.529Z,47.17
2022-12-18T07:13:25.939Z,41.67
2022-12-18T07:15:53.037Z,41.90
2022-12-18T07:18:20.161Z,48.95
2022-12-18T07:20:47.201Z,36.47
2022-12-18T07:23:15.242Z,32.50
2022-12-18T07:25:42.511Z,35.03
2022-12-18T07:28:15.643Z,32.73
2022-12-18T07:30:44.753Z,32.80
2022-12-18T07:33:11.908Z,31.97
2022-12-18T07:35:39.307Z,30.10
2022-12-18T07:38:06.512Z,30.67
2022-12-18T07:40:33.652Z,31.00
2022-12-18T07:43:00.765Z,30.23
2022-12-18T07:45:28.075Z,34.57
2022-12-18T07:47:55.285Z,33.10
2022-12-18T07:50:22.424Z,33.87
2022-12-18T07:52:49.505Z,33.60
2022-12-18T07:55:16.860Z,33.30
2022-12-18T07:57:54.148Z,33.20
2022-12-18T08:00:22.844Z,33.13
2022-12-18T08:02:50.265Z,29.77
2022-12-18T08:05:17.889Z,29.60
2022-12-18T08:07:45.016Z,29.80
2022-12-18T08:10:12.333Z,28.63
2022-12-18T08:12:39.886Z,29.40
2022-12-18T08:15:07.887Z,28.73
2022-12-18T08:17:35.269Z,30.13
2022-12-18T08:20:02.786Z,29.30
2022-12-18T08:22:30.158Z,26.47
2022-12-18T08:24:57.753Z,28.33
2022-12-18T08:27:29.681Z,28.90
2022-12-18T08:29:58.333Z,30.23
2022-12-18T08:32:26.905Z,28.30
2022-12-18T08:34:54.095Z,28.40
2022-12-18T08:37:21.279Z,27.43
2022-12-18T08:39:48.488Z,25.67
2022-12-18T08:42:34.420Z,29.70
2022-12-18T08:45:01.638Z,29.30
2022-12-18T08:47:28.868Z,31.10
2022-12-18T08:49:56.207Z,30.87
2022-12-18T08:52:23.455Z,31.90
2022-12-18T08:54:50.946Z,29.67
2022-12-18T08:57:18.312Z,29.50
2022-12-18T08:59:45.813Z,29.00
2022-12-18T09:02:13.170Z,25.93
2022-12-18T09:04:41.161Z,27.60
2022-12-18T09:07:08.320Z,29.27
2022-12-18T09:09:35.583Z,28.27
2022-12-18T09:12:02.979Z,26.37
2022-12-18T09:14:30.092Z,27.13
2022-12-18T09:16:57.245Z,27.40
2022-12-18T09:19:24.447Z,28.00
2022-12-18T09:21:51.537Z,26.73
2022-12-18T09:24:18.659Z,26.20
2022-12-18T09:26:47.424Z,26.03
2022-12-18T09:29:16.394Z,25.97
2022-12-18T09:31:45.578Z,26.57
2022-12-18T09:34:12.655Z,25.20
2022-12-18T09:36:39.937Z,25.23
2022-12-18T09:39:08.723Z,24.83
2022-12-18T09:41:47.047Z,25.10
2022-12-18T09:44:36.849Z,23.53
2022-12-18T09:47:31.657Z,24.17
2022-12-18T09:50:05.002Z,23.70
2022-12-18T09:52:38.846Z,23.43
2022-12-18T09:55:38.163Z,23.17
2022-12-18T09:58:33.747Z,23.03
2022-12-18T10:01:00.852Z,24.23
2022-12-18T10:03:28.436Z,25.00
2022-12-18T10:06:21.369Z,22.20
2022-12-18T10:09:35.022Z,24.63
2022-12-18T10:12:14.139Z,23.83
2022-12-18T10:15:08.546Z,23.17
2022-12-18T10:18:07.048Z,24.20
2022-12-18T10:21:00.901Z,23.00
2022-12-18T10:23:58.351Z,24.30
2022-12-18T10:26:26.050Z,23.00
2022-12-18T10:28:54.747Z,22.33
2022-12-18T10:31:25.155Z,21.80
2022-12-18T10:33:54.900Z,24.33
2022-12-18T10:36:25.546Z,23.60
2022-12-18T10:38:52.990Z,23.07
2022-12-18T10:41:29.434Z,22.57
2022-12-18T10:44:25.463Z,23.07
2022-12-18T10:46:59.212Z,23.67
2022-12-18T10:49:32.572Z,23.60
2022-12-18T10:52:18.607Z,22.93
2022-12-18T10:54:59.464Z,22.73
2022-12-18T10:57:38.433Z,22.50
2022-12-18T11:00:25.853Z,22.03
2022-12-18T11:02:53.622Z,22.13
2022-12-18T11:05:33.071Z,23.30
2022-12-18T11:08:01.706Z,23.40
2022-12-18T11:10:35.304Z,22.83
2022-12-18T11:13:17.583Z,22.93
2022-12-18T11:15:45.259Z,22.30
2022-12-18T11:18:31.142Z,23.90
2022-12-18T11:21:02.071Z,23.37
2022-12-18T11:23:29.346Z,23.67
2022-12-18T11:25:59.828Z,23.37
2022-12-18T11:29:08.392Z,23.37
2022-12-18T11:31:35.570Z,23.37
2022-12-18T11:34:30.291Z,24.00
2022-12-18T11:37:00.757Z,22.50
2022-12-18T11:39:40.468Z,23.50
2022-12-18T11:42:35.658Z,22.87
2022-12-18T11:45:52.940Z,23.40
2022-12-18T11:48:31.536Z,23.03
2022-12-18T11:51:01.473Z,22.83
2022-12-18T11:53:29.137Z,23.40
2022-12-18T11:56:27.651Z,23.00
2022-12-18T11:59:30.250Z,22.20
2022-12-18T12:02:44.338Z,21.67
2022-12-18T12:05:44.310Z,23.20
2022-12-18T12:09:01.374Z,22.20
2022-12-18T12:15:11.474Z,21.13
2022-12-18T12:18:11.268Z,21.93
2022-12-18T12:21:05.123Z,20.70
2022-12-18T12:23:47.929Z,20.63
2022-12-18T12:26:28.601Z,23.00
2022-12-18T12:29:36.750Z,21.53
2022-12-18T12:44:33.228Z,20.50
2022-12-18T12:49:56.316Z,21.63
2022-12-18T12:52:41.338Z,19.90
2022-12-18T12:55:21.550Z,21.10
2022-12-18T12:58:18.830Z,20.93
2022-12-18T13:00:59.691Z,20.00
2022-12-18T13:04:06.475Z,21.63
2022-12-18T13:10:26.956Z,19.37
2022-12-18T13:13:17.156Z,20.20
2022-12-18T13:16:08.279Z,20.63
2022-12-18T13:18:36.242Z,19.70
2022-12-18T13:21:44.938Z,19.67
2022-12-18T13:24:28.659Z,19.43
2022-12-18T13:26:56.410Z,19.37
2022-12-18T13:29:49.466Z,18.97
2022-12-18T13:32:25.557Z,21.23
2022-12-18T13:35:41.064Z,19.80
2022-12-18T13:38:41.178Z,20.53
2022-12-18T13:41:27.271Z,20.20
2022-12-18T13:44:12.139Z,19.57
2022-12-18T13:46:50.945Z,20.13
2022-12-18T13:49:40.248Z,20.40
2022-12-18T13:52:28.727Z,20.87
2022-12-18T13:54:58.845Z,21.30
2022-12-18T13:57:39.480Z,22.73
2022-12-18T14:00:29.539Z,20.70
2022-12-18T14:02:58.240Z,21.33
2022-12-18T14:05:34.108Z,19.87
2022-12-18T14:08:15.087Z,20.63
2022-12-18T14:10:48.521Z,20.47
2022-12-18T14:13:47.234Z,18.67
2022-12-18T14:16:17.916Z,18.27
2022-12-18T14:18:58.757Z,21.43
2022-12-18T14:21:33.170Z,20.37
2022-12-18T14:24:26.446Z,21.70
2022-12-18T14:26:53.644Z,20.57
2022-12-18T14:29:29.669Z,20.90
2022-12-18T14:32:18.643Z,21.07
2022-12-18T14:34:56.362Z,21.23
2022-12-18T14:37:26.050Z,20.47
2022-12-18T14:40:10.517Z,20.77
2022-12-18T14:42:38.863Z,22.17
2022-12-18T14:45:53.610Z,21.80
2022-12-18T14:48:44.281Z,23.00
2022-12-18T14:51:21.021Z,23.17
2022-12-18T14:53:59.589Z,22.40
2022-12-18T14:56:29.820Z,23.00
2022-12-18T14:59:19.218Z,22.50
2022-12-18T15:02:20.688Z,23.80
2022-12-18T15:04:48.381Z,23.77
2022-12-18T15:07:22.099Z,23.90
2022-12-18T15:10:25.758Z,23.53
2022-12-18T15:13:22.998Z,23.47
2022-12-18T15:15:50.764Z,24.30
2022-12-18T15:18:21.170Z,24.87
2022-12-18T15:21:00.332Z,25.27
2022-12-18T15:23:48.273Z,25.30
2022-12-18T15:26:17.764Z,25.10
2022-12-18T15:28:51.089Z,26.00
2022-12-18T15:31:30.430Z,24.60
2022-12-18T15:34:13.497Z,25.80
2022-12-18T15:36:41.062Z,24.27
2022-12-18T15:39:11.957Z,25.17
2022-12-18T15:41:39.084Z,25.93
2022-12-18T15:44:26.735Z,26.83
2022-12-18T15:46:53.880Z,23.70
2022-12-18T15:49:21.114Z,25.70
2022-12-18T15:52:13.088Z,25.00
2022-12-18T15:54:59.332Z,25.37
2022-12-18T15:57:26.657Z,24.80
2022-12-18T15:59:57.503Z,26.53
2022-12-18T16:02:25.288Z,31.83
2022-12-18T16:04:54.665Z,26.07
2022-12-18T16:07:24.951Z,24.77
2022-12-18T16:09:52.838Z,24.27
2022-12-18T16:12:23.511Z,25.43
2022-12-18T16:14:51.829Z,23.77
2022-12-18T16:17:18.911Z,25.03
2022-12-18T16:19:46.095Z,25.80
2022-12-18T16:22:24.583Z,26.37
2022-12-18T16:24:53.653Z,26.83
2022-12-18T16:27:21.337Z,25.90
2022-12-18T16:29:48.963Z,30.10
2022-12-18T16:32:18.998Z,28.00
2022-12-18T16:34:47.016Z,30.70
2022-12-18T16:37:15.742Z,27.70
2022-12-18T16:39:44.559Z,25.57
2022-12-18T16:42:17.303Z,24.20
2022-12-18T16:44:45.387Z,25.07
2022-12-18T16:47:14.912Z,24.70
2022-12-18T16:49:43.048Z,25.80
2022-12-18T16:52:10.166Z,26.80
2022-12-18T16:54:37.329Z,25.67
2022-12-18T16:57:05.565Z,27.70
2022-12-18T16:59:35.673Z,25.67
2022-12-18T17:02:03.575Z,27.40
2022-12-18T17:04:31.092Z,27.50
2022-12-18T17:06:58.147Z,26.73
2022-12-18T17:09:25.580Z,24.93
2022-12-18T17:11:53.771Z,27.53
2022-12-18T17:14:23.244Z,27.67
2022-12-18T17:17:01.882Z,27.17
2022-12-18T17:19:37.786Z,32.13
2022-12-18T17:22:05.192Z,29.93
2022-12-18T17:24:35.004Z,27.43
2022-12-18T17:27:03.306Z,28.97
2022-12-18T17:29:30.463Z,29.40
2022-12-18T17:31:57.670Z,29.27
2022-12-18T17:34:27.439Z,29.47
2022-12-18T17:36:54.489Z,29.47
2022-12-18T17:39:21.854Z,30.00
2022-12-18T17:41:49.584Z,29.07
2022-12-18T17:44:17.447Z,29.60
2022-12-18T17:46:44.729Z,30.13
2022-12-18T17:49:12.216Z,29.53
2022-12-18T17:51:39.844Z,30.50
2022-12-18T17:54:06.924Z,30.17
2022-12-18T17:56:33.955Z,32.63
2022-12-18T17:59:01.446Z,29.67
2022-12-18T18:01:28.797Z,30.73
2022-12-18T18:03:56.401Z,31.83
2022-12-18T18:06:24.036Z,31.07
2022-12-18T18:08:51.587Z,30.30
2022-12-18T18:11:39.556Z,32.00
2022-12-18T18:14:16.475Z,31.20
2022-12-18T18:16:46.525Z,31.70
2022-12-18T18:19:16.822Z,33.77
2022-12-18T18:21:45.847Z,35.13
2022-12-18T18:24:16.018Z,34.23
2022-12-18T18:26:43.538Z,37.30
2022-12-18T18:29:18.204Z,37.47
2022-12-18T18:31:45.634Z,37.77
2022-12-18T18:34:19.004Z,39.97
2022-12-18T18:36:46.475Z,40.80
2022-12-18T18:39:14.371Z,42.83
2022-12-18T18:41:42.186Z,39.43
2022-12-18T18:44:16.048Z,41.77
2022-12-18T18:46:43.198Z,39.77
2022-12-18T18:49:11.558Z,46.33
2022-12-18T18:51:40.560Z,41.27
2022-12-18T18:54:07.788Z,43.57
2022-12-18T18:56:56.248Z,41.97
2022-12-18T18:59:22.456Z,43.07
2022-12-18T19:01:57.476Z,44.27
2022-12-18T19:04:24.584Z,42.60
2022-12-18T19:06:52.965Z,43.87
2022-12-18T19:09:21.907Z,44.27
2022-12-18T19:12:07.968Z,42.50
2022-12-18T19:14:35.194Z,40.67
2022-12-18T19:17:02.315Z,46.50
2022-12-18T19:19:30.475Z,44.97
2022-12-18T19:21:57.682Z,43.73
2022-12-18T19:24:24.845Z,42.93
2022-12-18T19:26:52.353Z,43.07
2022-12-18T19:29:23.985Z,43.40
2022-12-18T19:31:51.171Z,46.63
2022-12-18T19:34:18.350Z,45.83
2022-12-18T19:36:45.528Z,47.30
2022-12-18T19:39:16.093Z,46.47
2022-12-18T19:41:43.823Z,45.27
2022-12-18T19:44:16.236Z,44.73
2022-12-18T19:46:46.331Z,43.73
2022-12-18T19:49:17.554Z,43.50
2022-12-18T19:51:46.594Z,44.13
2022-12-18T19:54:16.934Z,44.40
2022-12-18T19:56:45.702Z,45.97
2022-12-18T19:59:13.736Z,45.07
2022-12-18T20:01:41.104Z,42.90
2022-12-18T20:04:08.436Z,44.97
2022-12-18T20:06:47.316Z,41.10
2022-12-18T20:09:14.603Z,43.00
2022-12-18T20:11:42.534Z,43.27
2022-12-18T20:14:14.472Z,39.70
2022-12-18T20:16:44.095Z,44.73
2022-12-18T20:19:13.033Z,43.93
2022-12-18T20:21:40.927Z,41.80
2022-12-18T20:24:08.775Z,45.27
2022-12-18T20:26:36.044Z,43.33
2022-12-18T20:29:03.177Z,39.67
2022-12-18T20:31:30.555Z,42.90
2022-12-18T20:34:01.694Z,43.93
2022-12-18T20:36:32.886Z,45.27
2022-12-18T20:39:02.778Z,43.77
2022-12-18T20:41:37.263Z,44.47
2022-12-18T20:44:21.503Z,45.43
2022-12-18T20:46:52.431Z,42.73
2022-12-18T20:49:19.742Z,44.30
2022-12-18T20:51:50.436Z,43.17
2022-12-18T20:54:21.584Z,43.67
2022-12-18T20:56:48.672Z,44.20
2022-12-18T20:59:15.983Z,41.73
2022-12-18T21:01:48.614Z,45.10
2022-12-18T21:04:18.376Z,44.40
2022-12-18T21:06:51.004Z,44.63
2022-12-18T21:09:19.561Z,42.50
2022-12-18T21:12:05.390Z,42.53
2022-12-18T21:14:32.612Z,43.00
2022-12-18T21:17:02.802Z,42.67
2022-12-18T21:19:30.147Z,41.90
2022-12-18T21:21:57.960Z,42.90
2022-12-18T21:24:25.939Z,44.53
2022-12-18T21:26:55.379Z,44.37
2022-12-18T21:29:24.975Z,44.93
2022-12-18T21:31:54.944Z,41.70
2022-12-18T21:34:28.269Z,44.03
2022-12-18T21:36:57.490Z,43.00
2022-12-18T21:39:24.989Z,46.03
2022-12-18T21:42:10.994Z,44.13
2022-12-18T21:44:41.536Z,46.17
2022-12-18T21:47:22.134Z,43.73
2022-12-18T21:49:53.954Z,43.13
2022-12-18T21:52:26.254Z,42.53
2022-12-18T21:55:03.262Z,44.30
2022-12-18T21:57:35.445Z,44.73
2022-12-18T22:00:03.222Z,41.57
2022-12-18T22:02:39.658Z,45.83
2022-12-18T22:05:07.469Z,45.37
2022-12-18T22:07:34.727Z,43.40
2022-12-18T22:10:01.893Z,43.00
2022-12-18T22:12:43.600Z,43.23
2022-12-18T22:15:20.387Z,42.30
2022-12-18T22:17:50.580Z,45.00
2022-12-18T22:20:20.174Z,43.80
2022-12-18T22:22:48.702Z,43.73
2022-12-18T22:25:16.066Z,45.07
2022-12-18T22:27:43.302Z,42.77
2022-12-18T22:30:14.513Z,43.40
2022-12-18T22:32:41.639Z,40.73
2022-12-18T22:35:14.293Z,46.23
2022-12-18T22:37:42.641Z,44.23
2022-12-18T22:40:23.912Z,43.83
2022-12-18T22:42:51.549Z,44.27
2022-12-18T22:45:20.344Z,44.27
2022-12-18T22:47:47.471Z,44.97
2022-12-18T22:50:14.888Z,42.03
2022-12-18T22:52:42.406Z,44.27
2022-12-18T22:55:09.636Z,42.83
2022-12-18T22:57:36.720Z,42.87
2022-12-18T23:00:05.989Z,43.60
2022-12-18T23:02:33.342Z,42.00
2022-12-18T23:05:00.520Z,41.63
2022-12-18T23:07:27.679Z,43.13
2022-12-18T23:09:58.924Z,45.17
2022-12-18T23:12:28.212Z,45.03
2022-12-18T23:14:55.448Z,45.10
2022-12-18T23:17:22.587Z,45.00
2022-12-18T23:19:49.673Z,45.03
2022-12-18T23:22:17.487Z,45.20
2022-12-18T23:24:44.586Z,44.03
2022-12-18T23:27:12.268Z,44.13
2022-12-18T23:29:40.678Z,44.17
2022-12-18T23:32:08.027Z,43.07
2022-12-18T23:34:35.080Z,43.10
2022-12-18T23:37:03.857Z,42.20
2022-12-18T23:39:31.036Z,44.00
2022-12-18T23:41:58.943Z,41.00
2022-12-18T23:44:26.239Z,44.70
2022-12-18T23:46:53.418Z,42.97
2022-12-18T23:49:20.743Z,45.20
2022-12-18T23:51:47.923Z,46.23
2022-12-18T23:54:15.062Z,43.70
2022-12-18T23:56:42.173Z,43.53
2022-12-18T23:59:09.493Z,41.63
